Terminal Aerodrome Forecast
Issued by NWS Houston/Galveston, TX

Current Version | Previous Version | Text Only | Print | Product List | Glossary Off
Versions: 1 2 3 4 5 6 7 8 9 10 11 12 13 14 15 16 17 18 19 20 21 22 23 24 25

000
FTUS44 KHGX 291729
TAFCLL
TAF
KCLL 291729Z 2918/3018 04008KT P6SM SCT040
     FM300100 VRB04KT P6SM SCT250
     FM301100 VRB03KT 6SM BR SCT030
     FM301400 06005KT P6SM SCT250=

USA.gov is the U.S. government's official web portal to all federal, state and local government web resources and services.